Time;durP1;ratioP1;P1;durP2;ratioP2;P2;SDS_P1;SDS_P2;PMS_P1;PMS_P2;Temp;Humidity;BMP_temperature;BMP_pressure;BME280_temperature;BME280_humidity;BME280_pressure;Samples;Min_cycle;Max_cycle;Signal;HPM_P1;HPM_P2
2021/09/13 00:01:11;;;;;;;5.40;2.60;;;13.30;99.90;;;;;;5083141;28;20058;-76
2021/09/13 00:03:38;;;;;;;4.03;2.70;;;13.30;99.90;;;;;;5085035;28;20403;-75
2021/09/13 00:06:06;;;;;;;6.63;2.80;;;13.30;99.90;;;;;;5066944;28;20450;-75
2021/09/13 00:08:32;;;;;;;7.07;2.15;;;13.30;99.90;;;;;;5082144;28;20032;-75
2021/09/13 00:10:59;;;;;;;3.28;2.25;;;13.30;99.90;;;;;;5067066;28;20044;-75
2021/09/13 00:13:27;;;;;;;2.35;1.90;;;13.20;99.90;;;;;;5050296;28;20043;-75
2021/09/13 00:15:55;;;;;;;4.05;2.38;;;13.30;99.90;;;;;;5065018;28;20051;-75
2021/09/13 00:18:22;;;;;;;3.80;2.45;;;13.30;99.90;;;;;;5081375;28;20461;-76
2021/09/13 00:21:05;;;;;;;2.78;2.10;;;13.20;99.90;;;;;;5128414;27;20897;-76
2021/09/13 00:23:33;;;;;;;4.00;2.30;;;13.20;99.90;;;;;;5125781;27;20055;-76
2021/09/13 00:26:01;;;;;;;3.90;2.20;;;13.20;99.90;;;;;;5128751;27;20024;-76
2021/09/13 00:28:28;;;;;;;4.10;2.15;;;13.20;99.90;;;;;;5126002;27;20031;-76
2021/09/13 00:30:54;;;;;;;4.57;2.30;;;13.20;99.90;;;;;;5128235;27;20031;-76
2021/09/13 00:33:21;;;;;;;4.00;1.98;;;13.20;99.90;;;;;;5128778;27;20482;-76
2021/09/13 00:35:48;;;;;;;4.55;2.20;;;13.20;99.90;;;;;;5129585;27;20023;-76
2021/09/13 00:38:15;;;;;;;4.97;2.28;;;13.10;99.90;;;;;;5122181;27;20035;-76
2021/09/13 00:40:43;;;;;;;4.18;2.35;;;13.10;99.90;;;;;;5129241;27;20054;-76
2021/09/13 00:43:10;;;;;;;4.20;2.10;;;13.10;99.90;;;;;;5128998;27;20047;-76
2021/09/13 00:45:38;;;;;;;3.35;1.75;;;13.10;99.90;;;;;;5130292;27;20032;-79
2021/09/13 00:48:05;;;;;;;2.33;1.55;;;13.10;99.90;;;;;;5121055;27;20806;-79
2021/09/13 00:50:31;;;;;;;3.38;1.35;;;13.00;99.90;;;;;;5106610;28;20032;-80
2021/09/13 00:52:58;;;;;;;2.72;1.65;;;13.00;99.90;;;;;;5119599;27;20042;-79
2021/09/13 00:55:25;;;;;;;4.75;1.85;;;13.00;99.90;;;;;;5119918;27;20544;-79
2021/09/13 00:57:54;;;;;;;5.38;2.28;;;13.00;99.90;;;;;;5103455;28;20044;-79
2021/09/13 01:00:21;;;;;;;4.07;2.95;;;13.00;99.90;;;;;;5121525;27;20043;-79
2021/09/13 01:02:48;;;;;;;3.55;2.60;;;13.00;99.90;;;;;;5122420;27;20179;-79
2021/09/13 01:05:14;;;;;;;5.25;2.20;;;13.00;99.90;;;;;;5105091;28;20044;-79
2021/09/13 01:07:41;;;;;;;3.53;1.85;;;13.00;99.90;;;;;;5123569;27;20490;-79
2021/09/13 01:10:09;;;;;;;6.68;2.30;;;13.00;99.90;;;;;;5103468;27;20406;-79
2021/09/13 01:12:35;;;;;;;3.60;1.85;;;13.00;99.90;;;;;;5106001;28;20047;-79
2021/09/13 01:15:03;;;;;;;4.50;1.75;;;13.00;99.90;;;;;;5104112;27;20505;-79
2021/09/13 01:17:31;;;;;;;4.50;1.88;;;13.00;99.90;;;;;;5105331;28;20441;-79
2021/09/13 01:19:57;;;;;;;5.72;1.63;;;13.00;99.90;;;;;;5121898;27;20043;-79
2021/09/13 01:22:26;;;;;;;3.78;2.13;;;13.00;99.90;;;;;;5107444;28;20036;-79
2021/09/13 01:24:59;;;;;;;5.32;1.75;;;12.90;99.90;;;;;;5121718;27;20714;-79
2021/09/13 01:27:27;;;;;;;2.92;1.40;;;12.90;99.90;;;;;;5103216;28;20051;-79
2021/09/13 01:29:54;;;;;;;3.03;1.63;;;12.90;99.90;;;;;;5104919;27;20437;-79
2021/09/13 01:32:21;;;;;;;3.03;1.52;;;12.80;99.90;;;;;;5109970;27;20039;-79
2021/09/13 01:34:56;;;;;;;3.05;1.35;;;12.80;99.90;;;;;;5107703;28;20047;-79
2021/09/13 01:37:24;;;;;;;4.85;1.90;;;12.80;99.90;;;;;;5071906;28;20043;-79
2021/09/13 01:39:54;;;;;;;2.10;1.58;;;12.70;99.90;;;;;;5095141;28;20044;-80
2021/09/13 01:42:20;;;;;;;3.03;1.17;;;12.80;99.90;;;;;;5092111;28;20039;-82
2021/09/13 01:44:46;;;;;;;2.97;1.50;;;12.70;99.90;;;;;;5076624;28;20403;-83
2021/09/13 01:47:13;;;;;;;4.32;1.52;;;12.70;99.90;;;;;;5080921;27;20040;-83
2021/09/13 01:49:44;;;;;;;3.35;1.40;;;12.70;99.90;;;;;;5094790;28;20433;-82
2021/09/13 01:52:11;;;;;;;3.67;1.30;;;12.70;99.90;;;;;;5077075;28;20048;-83
2021/09/13 01:54:37;;;;;;;5.00;1.77;;;12.70;99.90;;;;;;5076964;28;20688;-83
2021/09/13 01:57:08;;;;;;;4.47;1.60;;;12.70;99.90;;;;;;5096977;28;20035;-83
2021/09/13 01:59:38;;;;;;;4.65;2.05;;;12.70;99.90;;;;;;5091840;28;20051;-82
2021/09/13 02:02:05;;;;;;;6.00;3.38;;;12.70;99.90;;;;;;5075702;28;20043;-79
2021/09/13 02:04:32;;;;;;;3.08;2.15;;;12.70;99.90;;;;;;5107429;28;20082;-79
2021/09/13 02:06:59;;;;;;;6.28;1.73;;;12.60;99.90;;;;;;5105640;28;20467;-79
2021/09/13 02:09:25;;;;;;;3.28;1.50;;;12.60;99.90;;;;;;5077402;27;20058;-79
2021/09/13 02:11:52;;;;;;;4.53;1.83;;;12.60;99.90;;;;;;5093281;27;20035;-79
2021/09/13 02:14:23;;;;;;;1.93;1.10;;;12.60;99.90;;;;;;5074573;28;20047;-79
2021/09/13 02:16:50;;;;;;;2.75;1.15;;;12.60;99.90;;;;;;5107596;27;20281;-79
2021/09/13 02:19:16;;;;;;;4.75;1.88;;;12.60;99.90;;;;;;5074106;27;20060;-79
2021/09/13 02:21:44;;;;;;;3.45;1.77;;;12.60;99.90;;;;;;5089429;27;20039;-79
2021/09/13 02:24:11;;;;;;;5.22;1.65;;;12.60;99.90;;;;;;5090154;28;20044;-79
2021/09/13 02:26:39;;;;;;;4.45;1.38;;;12.60;99.90;;;;;;5071895;28;20040;-79
2021/09/13 02:29:05;;;;;;;4.75;1.73;;;12.60;99.90;;;;;;5106619;28;20050;-79
2021/09/13 02:31:31;;;;;;;4.50;2.10;;;12.60;99.90;;;;;;5106842;28;20468;-78
2021/09/13 02:33:58;;;;;;;5.28;1.60;;;12.50;99.90;;;;;;5107105;28;20036;-78
2021/09/13 02:36:25;;;;;;;3.45;1.92;;;12.50;99.90;;;;;;5070719;27;20047;-78
2021/09/13 02:38:51;;;;;;;3.15;2.20;;;12.60;99.90;;;;;;5088584;28;20055;-79
2021/09/13 02:41:18;;;;;;;5.68;2.28;;;12.60;99.90;;;;;;5104440;28;20039;-79
2021/09/13 02:43:46;;;;;;;5.90;2.28;;;12.50;99.90;;;;;;5088757;28;20135;-79
2021/09/13 02:46:15;;;;;;;3.08;1.80;;;12.50;99.90;;;;;;5111639;27;20040;-79
2021/09/13 02:48:42;;;;;;;3.75;1.88;;;12.50;99.90;;;;;;5096724;27;20051;-79
2021/09/13 02:51:12;;;;;;;4.40;2.00;;;12.50;99.90;;;;;;5075055;28;20048;-79
2021/09/13 02:53:39;;;;;;;3.45;1.52;;;12.50;99.90;;;;;;5092325;28;20047;-79
2021/09/13 02:56:06;;;;;;;4.00;1.38;;;12.40;99.90;;;;;;5071855;28;20047;-79
2021/09/13 02:58:37;;;;;;;4.05;1.50;;;12.40;99.90;;;;;;5092579;28;20379;-79
2021/09/13 03:01:04;;;;;;;3.47;1.23;;;12.40;99.90;;;;;;5070374;28;20119;-79
2021/09/13 03:03:30;;;;;;;3.78;1.75;;;12.40;99.90;;;;;;5089952;27;20036;-79
2021/09/13 03:05:57;;;;;;;2.75;1.17;;;12.40;99.90;;;;;;5091514;27;20039;-80
2021/09/13 03:08:24;;;;;;;2.75;1.27;;;12.40;99.90;;;;;;5104542;27;20828;-79
2021/09/13 03:10:50;;;;;;;3.03;1.48;;;12.40;99.90;;;;;;5109154;27;20044;-79
2021/09/13 03:13:17;;;;;;;3.38;1.52;;;12.40;99.90;;;;;;5094462;28;20067;-79
2021/09/13 03:15:44;;;;;;;5.00;1.38;;;12.40;99.90;;;;;;5088680;28;20426;-79
2021/09/13 03:18:12;;;;;;;4.90;1.73;;;12.40;99.90;;;;;;5091255;28;20039;-79
2021/09/13 03:20:38;;;;;;;7.47;1.75;;;12.40;99.90;;;;;;5093514;28;20047;-79
2021/09/13 03:23:05;;;;;;;3.25;1.58;;;12.40;99.90;;;;;;5094778;27;20112;-79
2021/09/13 03:25:31;;;;;;;4.80;2.22;;;12.40;99.90;;;;;;5076471;28;20035;-79
2021/09/13 03:28:01;;;;;;;5.90;2.17;;;12.40;99.90;;;;;;5089229;28;20039;-79
2021/09/13 03:30:31;;;;;;;4.93;1.70;;;12.40;99.90;;;;;;5078010;27;20051;-79
2021/09/13 03:32:58;;;;;;;4.50;1.83;;;12.40;99.90;;;;;;5071326;28;20047;-79
2021/09/13 03:35:24;;;;;;;4.57;1.08;;;12.30;99.90;;;;;;5071775;28;20060;-79
2021/09/13 03:37:52;;;;;;;8.32;1.67;;;12.30;99.90;;;;;;5087340;28;20506;-79
2021/09/13 03:40:18;;;;;;;5.55;1.10;;;12.30;99.90;;;;;;5090318;27;20043;-79
2021/09/13 03:42:45;;;;;;;3.13;1.15;;;12.30;99.90;;;;;;5054913;28;20812;-79
2021/09/13 03:45:12;;;;;;;5.60;1.08;;;12.30;99.90;;;;;;5091509;27;20043;-79
2021/09/13 03:48:01;;;;;;;4.05;1.02;;;12.30;99.90;;;;;;5103187;28;20043;-79
2021/09/13 03:50:31;;;;;;;4.60;1.08;;;12.30;99.90;;;;;;5105177;28;20047;-79
2021/09/13 03:52:57;;;;;;;4.07;1.40;;;12.30;99.90;;;;;;5077263;27;20062;-79
2021/09/13 03:55:24;;;;;;;3.92;1.27;;;12.30;99.90;;;;;;5056087;27;20048;-79
2021/09/13 03:57:52;;;;;;;4.38;1.92;;;12.30;99.90;;;;;;5073984;28;20047;-76
2021/09/13 04:00:20;;;;;;;3.53;1.30;;;12.30;99.90;;;;;;5093491;27;20051;-76
2021/09/13 04:02:50;;;;;;;4.40;1.80;;;12.30;99.90;;;;;;5107690;27;20109;-77
2021/09/13 04:05:24;;;;;;;4.45;1.75;;;12.40;99.90;;;;;;5107121;28;20050;-77
2021/09/13 04:08:33;;;;;;;5.73;1.73;;;12.40;99.90;;;;;;5105823;27;20034;-76
2021/09/13 04:11:57;;;;;;;3.45;1.77;;;12.50;99.90;;;;;;5101293;28;20382;-77
2021/09/13 04:14:47;;;;;;;3.65;2.03;;;12.50;99.90;;;;;;5084440;28;20039;-77
2021/09/13 04:17:36;;;;;;;4.68;2.40;;;12.50;99.90;;;;;;5079431;28;20046;-77
2021/09/13 04:20:26;;;;;;;4.15;2.17;;;12.50;99.90;;;;;;5106953;28;20051;-77
2021/09/13 04:23:15;;;;;;;4.40;2.30;;;12.40;99.90;;;;;;5106222;28;20051;-76
2021/09/13 04:26:04;;;;;;;4.05;2.90;;;12.40;99.90;;;;;;5100749;28;20042;-76
2021/09/13 04:29:00;;;;;;;4.55;2.63;;;12.40;99.90;;;;;;5076103;28;20075;-77
2021/09/13 04:32:05;;;;;;;4.90;2.60;;;12.40;99.90;;;;;;5052041;28;20566;-76
2021/09/13 04:34:52;;;;;;;3.00;2.47;;;12.40;99.90;;;;;;5045279;28;20186;-76
2021/09/13 04:37:57;;;;;;;3.92;2.63;;;12.40;99.90;;;;;;5054753;28;20044;-76
2021/09/13 04:40:42;;;;;;;4.82;2.25;;;12.40;99.90;;;;;;5062873;28;20036;-76
2021/09/13 04:43:31;;;;;;;5.28;3.20;;;12.30;99.90;;;;;;5054905;28;20058;-76
2021/09/13 04:46:27;;;;;;;4.75;2.75;;;12.40;99.90;;;;;;5097135;28;20543;-76
2021/09/13 04:49:09;;;;;;;3.80;2.30;;;12.40;99.90;;;;;;5104506;28;20031;-76
2021/09/13 04:51:54;;;;;;;4.78;3.03;;;12.40;99.90;;;;;;5109000;28;20035;-77
2021/09/13 04:54:32;;;;;;;4.70;2.42;;;12.30;99.90;;;;;;5103179;28;20040;-76
2021/09/13 04:57:00;;;;;;;3.63;2.00;;;12.30;99.90;;;;;;5087420;28;20047;-76
2021/09/13 04:59:27;;;;;;;9.48;3.08;;;12.30;99.90;;;;;;5107624;28;20038;-76
2021/09/13 05:01:53;;;;;;;5.38;3.17;;;12.30;99.90;;;;;;5104268;28;20035;-79
2021/09/13 05:04:22;;;;;;;6.03;2.58;;;12.30;99.90;;;;;;5092657;28;20039;-79
2021/09/13 05:06:49;;;;;;;4.32;2.50;;;12.30;99.90;;;;;;5074267;28;20050;-79
2021/09/13 05:09:16;;;;;;;3.92;2.30;;;12.30;99.90;;;;;;5111446;27;20028;-79
2021/09/13 05:11:43;;;;;;;4.05;2.40;;;12.20;99.90;;;;;;5071875;28;20387;-79
2021/09/13 05:14:14;;;;;;;4.40;2.35;;;12.30;99.90;;;;;;5107145;28;20043;-79
2021/09/13 05:16:41;;;;;;;3.97;1.95;;;12.30;99.90;;;;;;5075094;27;20048;-79
2021/09/13 05:19:07;;;;;;;6.72;2.25;;;12.30;99.90;;;;;;5095545;28;20051;-79
2021/09/13 05:21:38;;;;;;;4.63;1.67;;;12.40;99.90;;;;;;5108536;27;20046;-79
2021/09/13 05:24:06;;;;;;;7.00;2.90;;;12.40;99.90;;;;;;5071536;28;20514;-79
2021/09/13 05:26:33;;;;;;;5.45;2.55;;;12.50;99.90;;;;;;5088871;27;20032;-78
2021/09/13 05:29:00;;;;;;;7.43;3.08;;;12.60;99.90;;;;;;5106395;27;20039;-79
2021/09/13 05:31:26;;;;;;;8.55;2.92;;;12.60;99.90;;;;;;5068327;28;20047;-80
2021/09/13 05:33:53;;;;;;;5.45;3.55;;;12.70;99.90;;;;;;5095946;28;20059;-80
2021/09/13 05:36:20;;;;;;;7.85;4.35;;;12.70;99.90;;;;;;5089776;28;20403;-79
2021/09/13 05:38:48;;;;;;;8.52;5.30;;;12.80;99.90;;;;;;5107311;28;20036;-79
2021/09/13 05:41:44;;;;;;;9.93;7.03;;;12.80;99.90;;;;;;5109527;27;20038;-80
2021/09/13 05:44:11;;;;;;;11.52;7.18;;;12.80;99.90;;;;;;5091232;28;20039;-80
2021/09/13 05:46:38;;;;;;;10.57;5.57;;;12.80;99.90;;;;;;5110068;27;20035;-79
2021/09/13 05:49:09;;;;;;;6.80;5.57;;;12.90;99.90;;;;;;5091454;28;20497;-78
2021/09/13 05:51:51;;;;;;;6.20;5.50;;;12.90;99.90;;;;;;5091821;28;20395;-81
2021/09/13 05:54:25;;;;;;;16.52;12.13;;;12.90;99.90;;;;;;5094427;28;20499;-79
2021/09/13 05:56:53;;;;;;;11.15;8.48;;;13.00;99.90;;;;;;5075878;28;20052;-80
2021/09/13 05:59:21;;;;;;;12.15;9.75;;;13.00;99.90;;;;;;5111834;27;20038;-79
2021/09/13 06:01:49;;;;;;;10.82;7.15;;;13.10;99.90;;;;;;5073550;28;20110;-81
2021/09/13 06:04:17;;;;;;;8.60;7.18;;;13.20;99.90;;;;;;5089745;27;20469;-80
2021/09/13 06:06:44;;;;;;;8.85;6.85;;;13.20;99.90;;;;;;5089700;27;20039;-78
2021/09/13 06:09:12;;;;;;;9.20;5.70;;;13.30;99.90;;;;;;5087837;28;20036;-78
2021/09/13 06:11:39;;;;;;;9.80;6.25;;;13.40;99.90;;;;;;5085460;28;20557;-78
2021/09/13 06:14:05;;;;;;;8.25;5.22;;;13.50;99.90;;;;;;5107164;27;20040;-78
2021/09/13 06:16:32;;;;;;;7.55;5.63;;;13.50;99.90;;;;;;5102810;27;20043;-78
2021/09/13 06:19:01;;;;;;;7.82;5.82;;;13.50;99.90;;;;;;5107342;27;20044;-78
2021/09/13 06:21:27;;;;;;;7.30;5.45;;;13.50;99.90;;;;;;5087680;28;20560;-78
2021/09/13 06:23:54;;;;;;;9.05;6.03;;;13.50;99.90;;;;;;5107281;27;20031;-77
2021/09/13 06:26:21;;;;;;;7.93;6.07;;;13.60;99.90;;;;;;5088909;28;20043;-80
2021/09/13 06:28:49;;;;;;;8.75;5.75;;;13.60;99.90;;;;;;5106785;27;20039;-80
2021/09/13 06:31:16;;;;;;;8.25;6.38;;;13.60;99.90;;;;;;5090178;28;20027;-80
2021/09/13 06:33:43;;;;;;;9.55;6.28;;;13.70;99.90;;;;;;5075816;28;20059;-78
2021/09/13 06:36:11;;;;;;;8.20;5.88;;;13.80;99.90;;;;;;5092056;27;20039;-78
2021/09/13 06:38:43;;;;;;;9.27;5.82;;;13.90;99.90;;;;;;5087749;27;20056;-78
2021/09/13 06:41:09;;;;;;;11.90;6.50;;;14.10;99.90;;;;;;5111448;27;20039;-78
2021/09/13 06:43:36;;;;;;;7.78;5.65;;;14.20;99.90;;;;;;5091554;28;20051;-78
2021/09/13 06:46:11;;;;;;;8.02;5.28;;;14.30;99.90;;;;;;5091457;28;20387;-78
2021/09/13 06:48:39;;;;;;;10.18;6.90;;;14.40;99.90;;;;;;5088572;28;20043;-78
2021/09/13 06:51:06;;;;;;;13.18;6.78;;;14.50;99.90;;;;;;5104411;27;20484;-78
2021/09/13 06:53:33;;;;;;;6.20;5.60;;;14.70;99.90;;;;;;5086144;28;20066;-79
2021/09/13 06:56:01;;;;;;;8.68;6.60;;;14.80;99.90;;;;;;5107556;27;20036;-78
2021/09/13 06:58:28;;;;;;;13.38;7.40;;;14.90;99.90;;;;;;5112615;27;20039;-77
2021/09/13 07:00:56;;;;;;;7.15;5.63;;;15.10;99.90;;;;;;5105399;27;20035;-77
2021/09/13 07:03:22;;;;;;;9.45;6.80;;;15.30;99.90;;;;;;5088137;28;20394;-79
2021/09/13 07:05:49;;;;;;;13.23;8.65;;;15.40;99.90;;;;;;5073323;27;20036;-77
2021/09/13 07:08:16;;;;;;;14.60;9.05;;;15.50;99.90;;;;;;5107337;27;20040;-78
2021/09/13 07:10:44;;;;;;;9.05;6.90;;;15.60;99.90;;;;;;5105568;27;20059;-78
2021/09/13 07:13:14;;;;;;;11.13;8.18;;;15.70;99.90;;;;;;5108442;27;20398;-78
2021/09/13 07:15:42;;;;;;;9.65;7.72;;;15.80;99.90;;;;;;5108064;27;20509;-78
2021/09/13 07:18:08;;;;;;;12.32;9.07;;;15.90;99.90;;;;;;5055171;27;20048;-78
2021/09/13 07:20:35;;;;;;;11.23;7.70;;;16.00;99.90;;;;;;5107854;27;20040;-78
2021/09/13 07:23:01;;;;;;;10.00;8.02;;;16.10;99.90;;;;;;5089362;27;20417;-78
2021/09/13 07:25:28;;;;;;;13.52;8.52;;;16.20;99.90;;;;;;5090414;28;20039;-81
2021/09/13 07:27:55;;;;;;;13.18;9.07;;;16.30;99.90;;;;;;5094579;27;20051;-78
2021/09/13 07:30:22;;;;;;;14.63;8.95;;;16.50;99.90;;;;;;5104922;27;20051;-78
2021/09/13 07:32:48;;;;;;;10.73;7.45;;;16.60;99.90;;;;;;5104349;28;20055;-79
2021/09/13 07:35:15;;;;;;;14.95;10.10;;;16.80;99.90;;;;;;5105740;28;20035;-79
2021/09/13 07:37:41;;;;;;;11.73;8.18;;;16.90;99.90;;;;;;5100352;28;20043;-79
2021/09/13 07:40:09;;;;;;;9.63;8.07;;;17.10;99.90;;;;;;5072942;27;20051;-80
2021/09/13 07:42:36;;;;;;;13.30;7.70;;;17.20;99.90;;;;;;5084024;28;20395;-79
2021/09/13 07:45:03;;;;;;;15.50;9.80;;;17.40;99.90;;;;;;5107441;28;20032;-79
2021/09/13 07:47:31;;;;;;;18.95;11.77;;;17.60;99.90;;;;;;5092577;28;20054;-79
2021/09/13 07:49:58;;;;;;;13.77;9.85;;;17.70;99.90;;;;;;5092549;27;20055;-80
2021/09/13 07:52:28;;;;;;;9.82;7.95;;;17.60;99.90;;;;;;5083258;28;20407;-80
2021/09/13 07:54:55;;;;;;;12.30;7.32;;;17.50;99.90;;;;;;5107505;27;20051;-79
2021/09/13 07:57:21;;;;;;;9.63;6.78;;;17.60;99.90;;;;;;5071122;28;20410;-80
2021/09/13 07:59:47;;;;;;;8.77;6.97;;;17.60;99.90;;;;;;5070820;28;20054;-79
2021/09/13 08:02:14;;;;;;;7.65;6.00;;;17.80;99.90;;;;;;5088806;28;20044;-80
2021/09/13 08:04:40;;;;;;;11.07;6.43;;;17.90;99.90;;;;;;5091342;27;20043;-80
2021/09/13 08:07:07;;;;;;;7.85;5.40;;;18.10;99.90;;;;;;5107149;28;20731;-80
2021/09/13 08:09:34;;;;;;;5.57;4.30;;;18.20;99.90;;;;;;5104797;28;20044;-80
2021/09/13 08:12:01;;;;;;;5.72;4.07;;;18.50;99.90;;;;;;5107562;27;20039;-80
2021/09/13 08:14:28;;;;;;;5.03;4.50;;;18.60;99.90;;;;;;5071239;28;20051;-80
2021/09/13 08:16:54;;;;;;;3.88;3.30;;;18.80;99.90;;;;;;5104461;28;20039;-81
2021/09/13 08:19:21;;;;;;;4.53;2.20;;;19.00;99.90;;;;;;5090273;28;20043;-79
2021/09/13 08:21:49;;;;;;;3.90;2.65;;;19.10;99.90;;;;;;5101075;28;20054;-80
2021/09/13 08:24:16;;;;;;;5.70;2.90;;;19.20;99.90;;;;;;5092172;28;20078;-81
2021/09/13 08:26:43;;;;;;;4.47;2.90;;;19.20;99.90;;;;;;5106604;28;20042;-83
2021/09/13 08:29:17;;;;;;;5.75;2.85;;;19.30;99.90;;;;;;5070855;28;20051;-83
2021/09/13 08:31:44;;;;;;;3.95;2.60;;;19.50;99.90;;;;;;5054911;28;20051;-81
2021/09/13 08:34:13;;;;;;;4.22;2.50;;;19.60;99.90;;;;;;5105104;28;20040;-81
2021/09/13 08:36:39;;;;;;;2.92;2.08;;;19.80;99.90;;;;;;5087439;28;20051;-81
2021/09/13 08:39:06;;;;;;;5.20;2.17;;;19.90;99.90;;;;;;5089280;28;20055;-81
2021/09/13 08:41:32;;;;;;;2.75;1.40;;;19.90;99.90;;;;;;5094156;27;20035;-80
2021/09/13 08:44:00;;;;;;;2.70;1.10;;;20.00;99.90;;;;;;5108187;28;20038;-80
2021/09/13 08:49:29;;;;;;;2.40;1.10;;;20.00;99.90;;;;;;5081076;28;20398;-84
2021/09/13 08:51:56;;;;;;;2.65;1.30;;;20.00;99.90;;;;;;5112045;27;20394;-84
2021/09/13 08:54:25;;;;;;;2.08;0.70;;;20.00;99.90;;;;;;5097962;28;20044;-84
2021/09/13 08:56:56;;;;;;;3.03;1.02;;;20.00;99.90;;;;;;5107673;27;20047;-84
2021/09/13 08:59:26;;;;;;;2.70;0.75;;;20.00;99.90;;;;;;5109024;28;20422;-84
2021/09/13 09:01:53;;;;;;;2.60;0.60;;;20.00;99.90;;;;;;5105497;28;20035;-84
2021/09/13 09:04:20;;;;;;;1.60;0.50;;;20.10;99.90;;;;;;5091360;28;20390;-81
2021/09/13 09:06:48;;;;;;;1.75;0.52;;;20.00;99.90;;;;;;5108491;28;20046;-79
2021/09/13 09:09:20;;;;;;;2.70;0.57;;;20.00;99.90;;;;;;5074030;27;20032;-85
2021/09/13 09:12:00;;;;;;;2.00;0.60;;;20.00;99.90;;;;;;5108465;27;20031;-80
2021/09/13 09:14:32;;;;;;;1.98;0.50;;;20.00;99.90;;;;;;5091711;28;20027;-82
2021/09/13 09:17:07;;;;;;;1.35;0.50;;;20.20;99.90;;;;;;5089304;28;20039;-84
2021/09/13 09:19:34;;;;;;;2.58;0.50;;;20.30;99.90;;;;;;5093811;27;20536;-85
2021/09/13 09:22:18;;;;;;;3.05;0.60;;;20.40;99.90;;;;;;5082362;28;20036;-84
2021/09/13 09:24:46;;;;;;;3.58;0.55;;;20.60;99.90;;;;;;5076000;28;20039;-85
2021/09/13 09:27:13;;;;;;;1.83;0.47;;;20.60;99.90;;;;;;5090677;28;20513;-85
2021/09/13 09:29:39;;;;;;;1.48;0.40;;;20.70;99.90;;;;;;5060820;28;20054;-85
2021/09/13 09:32:06;;;;;;;2.00;0.50;;;20.70;99.90;;;;;;5080283;27;20486;-85
2021/09/13 09:34:34;;;;;;;1.75;0.40;;;20.70;99.90;;;;;;5080521;28;20063;-86
2021/09/13 09:37:08;;;;;;;2.90;0.57;;;20.70;99.90;;;;;;5090690;27;20051;-84
2021/09/13 09:39:37;;;;;;;2.38;0.50;;;20.70;99.90;;;;;;5080414;28;20040;-85
2021/09/13 09:42:05;;;;;;;4.03;0.70;;;20.60;99.90;;;;;;5076191;28;20055;-84
2021/09/13 09:44:33;;;;;;;4.18;1.20;;;20.60;99.90;;;;;;5093116;28;20047;-84
2021/09/13 09:47:05;;;;;;;3.78;1.25;;;20.50;99.90;;;;;;5091565;28;20059;-86
2021/09/13 09:49:46;;;;;;;1.92;0.70;;;20.50;99.90;;;;;;5089831;28;20031;-84
2021/09/13 09:52:46;;;;;;;2.72;0.45;;;20.60;99.90;;;;;;5095960;27;20035;-83
2021/09/13 09:55:19;;;;;;;2.50;0.50;;;20.60;99.90;;;;;;5108875;27;20045;-85
2021/09/13 09:58:09;;;;;;;2.53;0.50;;;20.70;99.90;;;;;;5093479;28;20058;-84
2021/09/13 10:00:38;;;;;;;3.55;0.60;;;20.80;99.90;;;;;;5095262;28;20051;-84
2021/09/13 10:03:06;;;;;;;1.52;0.40;;;20.90;99.90;;;;;;5099028;28;20055;-85
2021/09/13 10:05:33;;;;;;;2.58;0.60;;;21.00;99.90;;;;;;5077323;27;20039;-83
2021/09/13 10:08:00;;;;;;;2.88;0.50;;;21.20;99.90;;;;;;5081862;28;20031;-85
2021/09/13 10:10:29;;;;;;;3.55;0.47;;;21.30;99.90;;;;;;5119056;27;20028;-86
2021/09/13 10:12:57;;;;;;;1.33;0.60;;;21.50;99.90;;;;;;5095779;27;20051;-86
2021/09/13 10:15:24;;;;;;;1.33;0.50;;;21.60;99.90;;;;;;5118022;27;20035;-86
2021/09/13 10:17:51;;;;;;;2.63;0.60;;;21.70;99.90;;;;;;5078200;28;20051;-85
2021/09/13 10:20:18;;;;;;;2.08;0.50;;;21.70;99.90;;;;;;5061877;27;20051;-86
2021/09/13 10:22:48;;;;;;;1.80;0.50;;;21.70;99.90;;;;;;5081305;27;20059;-82
2021/09/13 10:25:15;;;;;;;1.92;0.50;;;21.80;99.50;;;;;;5117476;27;20035;-81
2021/09/13 10:27:47;;;;;;;2.20;0.50;;;21.80;99.50;;;;;;5098617;27;20473;-81
2021/09/13 10:30:16;;;;;;;1.50;0.50;;;21.90;99.50;;;;;;5092944;28;20047;-81
2021/09/13 10:32:45;;;;;;;2.00;0.45;;;22.10;99.20;;;;;;5107429;27;20039;-81
2021/09/13 10:35:13;;;;;;;4.72;0.40;;;22.20;98.90;;;;;;5089680;27;20055;-81
2021/09/13 10:37:51;;;;;;;1.45;0.68;;;22.20;98.80;;;;;;5109051;27;20028;-81
2021/09/13 10:40:28;;;;;;;1.33;0.40;;;22.30;98.70;;;;;;5107922;27;20038;-83
2021/09/13 10:43:15;;;;;;;2.88;0.40;;;22.30;98.40;;;;;;5115910;27;20035;-81
2021/09/13 10:45:42;;;;;;;3.30;0.50;;;22.30;98.00;;;;;;5109916;27;20046;-81
2021/09/13 10:48:21;;;;;;;1.10;0.20;;;22.10;97.30;;;;;;5070282;28;20044;-83
2021/09/13 10:50:56;;;;;;;1.20;0.30;;;21.90;97.30;;;;;;5095528;27;20035;-82
2021/09/13 10:53:27;;;;;;;1.83;0.30;;;21.80;97.60;;;;;;5077588;28;20044;-82
2021/09/13 10:56:07;;;;;;;2.58;0.38;;;21.60;97.80;;;;;;5091655;27;20846;-81
2021/09/13 10:58:43;;;;;;;2.78;0.43;;;21.40;98.00;;;;;;5117042;27;20505;-80
2021/09/13 11:01:23;;;;;;;1.75;0.30;;;21.20;98.50;;;;;;5103596;28;20521;-80
2021/09/13 11:03:54;;;;;;;1.45;0.40;;;21.10;98.80;;;;;;5106977;28;20727;-81
2021/09/13 11:06:21;;;;;;;4.32;2.10;;;20.90;99.10;;;;;;5109827;27;20027;-81
2021/09/13 11:08:59;;;;;;;3.00;1.00;;;20.80;99.40;;;;;;5074571;28;20050;-82
2021/09/13 11:11:28;;;;;;;5.05;1.08;;;20.70;99.40;;;;;;5094858;28;20054;-82
2021/09/13 11:14:25;;;;;;;3.33;0.50;;;20.60;99.50;;;;;;5112520;27;20057;-83
2021/09/13 11:16:55;;;;;;;1.70;0.50;;;20.50;99.70;;;;;;5109542;27;20047;-80
2021/09/13 11:19:23;;;;;;;2.75;0.50;;;20.40;99.70;;;;;;5109073;27;20570;-80
2021/09/13 11:21:55;;;;;;;0.88;0.40;;;20.40;99.90;;;;;;5115248;27;20047;-80
2021/09/13 11:24:29;;;;;;;3.00;0.60;;;20.30;99.90;;;;;;5110722;27;20039;-80
2021/09/13 11:27:08;;;;;;;3.47;0.65;;;20.30;99.70;;;;;;5114134;27;20027;-80
2021/09/13 11:29:38;;;;;;;2.92;0.40;;;20.30;99.90;;;;;;5111449;27;20046;-80
2021/09/13 11:32:08;;;;;;;1.02;0.40;;;20.30;99.90;;;;;;5095974;27;20066;-80
2021/09/13 11:34:35;;;;;;;1.83;0.40;;;20.30;99.90;;;;;;5115721;27;20035;-80
2021/09/13 11:37:05;;;;;;;2.70;0.40;;;20.40;99.90;;;;;;5105778;27;20032;-80
2021/09/13 11:39:36;;;;;;;2.60;0.55;;;20.40;99.90;;;;;;5094814;28;20387;-80
2021/09/13 11:42:22;;;;;;;2.05;0.43;;;20.40;99.70;;;;;;5115527;27;20610;-80
2021/09/13 11:45:02;;;;;;;2.85;0.77;;;20.50;99.60;;;;;;5088762;28;20505;-81
2021/09/13 11:47:32;;;;;;;3.30;0.82;;;20.50;99.70;;;;;;5088459;27;20510;-81
2021/09/13 11:50:01;;;;;;;2.08;0.52;;;20.60;99.80;;;;;;5110382;27;20490;-82
2021/09/13 11:52:32;;;;;;;2.83;0.40;;;20.80;99.90;;;;;;5096448;27;20039;-81
2021/09/13 11:55:06;;;;;;;2.03;0.40;;;21.00;99.70;;;;;;5075724;27;20054;-80
2021/09/13 11:57:44;;;;;;;2.38;0.40;;;21.20;99.60;;;;;;5104432;27;20046;-80
2021/09/13 12:00:13;;;;;;;5.55;0.82;;;21.30;99.00;;;;;;5103884;27;20031;-80
2021/09/13 12:02:45;;;;;;;1.70;0.40;;;21.50;98.50;;;;;;5107462;27;20068;-81
2021/09/13 12:05:21;;;;;;;2.80;0.50;;;21.50;98.30;;;;;;5104982;27;20378;-81
2021/09/13 12:07:51;;;;;;;1.63;0.40;;;21.70;97.80;;;;;;5107165;27;20035;-81
2021/09/13 12:10:26;;;;;;;1.67;0.30;;;21.70;97.60;;;;;;5109703;27;20489;-80
2021/09/13 12:12:55;;;;;;;1.95;0.30;;;22.00;97.70;;;;;;5070327;27;20047;-80
2021/09/13 12:15:31;;;;;;;1.13;0.28;;;22.20;96.90;;;;;;5107957;28;20047;-81
2021/09/13 12:18:02;;;;;;;1.42;0.40;;;22.50;96.80;;;;;;5105096;28;20521;-80
2021/09/13 12:20:34;;;;;;;2.15;0.30;;;22.80;95.90;;;;;;5108681;28;20056;-81
2021/09/13 12:23:04;;;;;;;1.13;0.25;;;23.00;95.20;;;;;;5089902;28;20054;-81
2021/09/13 12:25:45;;;;;;;1.65;0.38;;;23.40;95.10;;;;;;5090490;28;20383;-81
2021/09/13 12:28:19;;;;;;;0.70;0.25;;;23.90;94.70;;;;;;5106152;28;20147;-81
2021/09/13 12:30:57;;;;;;;0.98;0.40;;;24.30;94.10;;;;;;5109393;28;20862;-81
2021/09/13 12:33:46;;;;;;;1.33;0.30;;;24.70;92.50;;;;;;5118261;27;20473;-81
2021/09/13 12:36:20;;;;;;;0.85;0.28;;;24.80;91.70;;;;;;5088190;28;20028;-81
2021/09/13 12:38:49;;;;;;;1.73;0.40;;;24.90;91.80;;;;;;5107209;28;20043;-82
2021/09/13 12:41:29;;;;;;;4.10;0.30;;;25.30;91.70;;;;;;5105998;28;20036;-82
2021/09/13 12:43:55;;;;;;;2.50;0.40;;;25.80;91.40;;;;;;5090528;28;20043;-82
2021/09/13 12:46:22;;;;;;;0.82;0.30;;;26.30;90.40;;;;;;5100961;28;20031;-83
2021/09/13 12:48:50;;;;;;;1.58;0.30;;;26.70;89.10;;;;;;5090618;28;20062;-84
2021/09/13 12:51:23;;;;;;;7.30;4.05;;;27.10;87.20;;;;;;5074531;28;20407;-82
2021/09/13 12:54:00;;;;;;;2.47;0.70;;;27.50;86.50;;;;;;5070989;28;20051;-82
2021/09/13 12:56:28;;;;;;;2.13;0.40;;;27.80;84.20;;;;;;5089021;28;20046;-82
2021/09/13 12:59:17;;;;;;;0.80;0.22;;;27.90;83.30;;;;;;5074326;28;20495;-82
2021/09/13 13:01:45;;;;;;;1.35;0.30;;;28.00;80.50;;;;;;5096321;28;20039;-82
2021/09/13 13:04:15;;;;;;;1.10;0.30;;;27.80;81.00;;;;;;5105462;28;20031;-82
2021/09/13 13:06:42;;;;;;;1.45;0.30;;;27.50;80.40;;;;;;5101012;28;20256;-82